sensor_id;sensor_type;location;lat;lon;timestamp;P1;durP1;ratioP1;P2;durP2;ratioP2
75160;SDS011;67232;50.096;8.716;2023-05-29T00:01:39;3.53;;;0.00;;
75160;SDS011;67232;50.096;8.716;2023-05-29T00:06:33;2.40;;;0.00;;
75160;SDS011;67232;50.096;8.716;2023-05-29T00:09:01;2.78;;;0.00;;
75160;SDS011;67232;50.096;8.716;2023-05-29T00:11:26;3.20;;;0.00;;
75160;SDS011;67232;50.096;8.716;2023-05-29T00:16:17;3.80;;;0.00;;
75160;SDS011;67232;50.096;8.716;2023-05-29T00:18:43;1.20;;;0.00;;
75160;SDS011;67232;50.096;8.716;2023-05-29T00:21:12;2.70;;;0.00;;
75160;SDS011;67232;50.096;8.716;2023-05-29T00:23:38;1.52;;;0.00;;
75160;SDS011;67232;50.096;8.716;2023-05-29T00:26:04;1.38;;;0.00;;
75160;SDS011;67232;50.096;8.716;2023-05-29T00:30:55;1.30;;;0.00;;
75160;SDS011;67232;50.096;8.716;2023-05-29T00:35:49;1.08;;;0.00;;
75160;SDS011;67232;50.096;8.716;2023-05-29T00:38:26;1.00;;;0.00;;
75160;SDS011;67232;50.096;8.716;2023-05-29T00:41:04;1.73;;;0.00;;
75160;SDS011;67232;50.096;8.716;2023-05-29T00:44:16;2.88;;;0.00;;
75160;SDS011;67232;50.096;8.716;2023-05-29T00:46:48;3.13;;;0.00;;
75160;SDS011;67232;50.096;8.716;2023-05-29T00:49:16;3.15;;;0.00;;
75160;SDS011;67232;50.096;8.716;2023-05-29T00:51:46;1.45;;;0.00;;
75160;SDS011;67232;50.096;8.716;2023-05-29T00:54:17;2.38;;;0.00;;
75160;SDS011;67232;50.096;8.716;2023-05-29T00:56:46;1.33;;;0.00;;
75160;SDS011;67232;50.096;8.716;2023-05-29T00:59:17;1.90;;;0.00;;
75160;SDS011;67232;50.096;8.716;2023-05-29T01:01:46;2.53;;;0.00;;
75160;SDS011;67232;50.096;8.716;2023-05-29T01:04:21;1.60;;;0.00;;
75160;SDS011;67232;50.096;8.716;2023-05-29T01:06:48;4.47;;;0.00;;
75160;SDS011;67232;50.096;8.716;2023-05-29T01:09:14;1.58;;;0.00;;
75160;SDS011;67232;50.096;8.716;2023-05-29T01:20:10;1.75;;;0.00;;
75160;SDS011;67232;50.096;8.716;2023-05-29T01:22:49;6.15;;;0.00;;
75160;SDS011;67232;50.096;8.716;2023-05-29T01:28:17;1.50;;;0.00;;
75160;SDS011;67232;50.096;8.716;2023-05-29T01:30:49;2.70;;;0.00;;
75160;SDS011;67232;50.096;8.716;2023-05-29T01:33:15;2.60;;;0.00;;
75160;SDS011;67232;50.096;8.716;2023-05-29T01:38:06;1.92;;;0.00;;
75160;SDS011;67232;50.096;8.716;2023-05-29T01:40:35;3.10;;;0.00;;
75160;SDS011;67232;50.096;8.716;2023-05-29T01:45:26;1.52;;;0.00;;
75160;SDS011;67232;50.096;8.716;2023-05-29T01:47:53;1.67;;;0.00;;
75160;SDS011;67232;50.096;8.716;2023-05-29T01:52:45;1.95;;;0.00;;
75160;SDS011;67232;50.096;8.716;2023-05-29T01:57:36;16.90;;;3.03;;
75160;SDS011;67232;50.096;8.716;2023-05-29T02:00:03;20.67;;;4.20;;
75160;SDS011;67232;50.096;8.716;2023-05-29T02:02:40;17.23;;;3.45;;
75160;SDS011;67232;50.096;8.716;2023-05-29T02:05:06;1.52;;;0.00;;
75160;SDS011;67232;50.096;8.716;2023-05-29T02:07:35;1.77;;;0.00;;
75160;SDS011;67232;50.096;8.716;2023-05-29T02:10:08;1.25;;;0.00;;
75160;SDS011;67232;50.096;8.716;2023-05-29T02:12:37;4.57;;;0.00;;
75160;SDS011;67232;50.096;8.716;2023-05-29T02:17:28;1.17;;;0.00;;
75160;SDS011;67232;50.096;8.716;2023-05-29T02:19:55;2.88;;;0.00;;
75160;SDS011;67232;50.096;8.716;2023-05-29T02:24:51;1.05;;;0.00;;
75160;SDS011;67232;50.096;8.716;2023-05-29T02:29:42;1.88;;;0.00;;
75160;SDS011;67232;50.096;8.716;2023-05-29T02:34:34;2.63;;;0.00;;
75160;SDS011;67232;50.096;8.716;2023-05-29T02:37:02;1.90;;;0.00;;
75160;SDS011;67232;50.096;8.716;2023-05-29T02:41:53;0.90;;;0.00;;
75160;SDS011;67232;50.096;8.716;2023-05-29T02:44:21;1.65;;;0.00;;
75160;SDS011;67232;50.096;8.716;2023-05-29T02:49:12;4.05;;;0.00;;
75160;SDS011;67232;50.096;8.716;2023-05-29T02:54:03;2.28;;;0.00;;
75160;SDS011;67232;50.096;8.716;2023-05-29T02:56:31;2.47;;;0.00;;
75160;SDS011;67232;50.096;8.716;2023-05-29T03:01:22;1.90;;;0.00;;
75160;SDS011;67232;50.096;8.716;2023-05-29T03:03:49;3.13;;;0.00;;
75160;SDS011;67232;50.096;8.716;2023-05-29T03:08:42;2.08;;;0.00;;
75160;SDS011;67232;50.096;8.716;2023-05-29T03:11:10;2.72;;;0.00;;
75160;SDS011;67232;50.096;8.716;2023-05-29T03:16:04;0.98;;;0.00;;
75160;SDS011;67232;50.096;8.716;2023-05-29T03:20:55;2.67;;;0.00;;
75160;SDS011;67232;50.096;8.716;2023-05-29T03:25:49;1.38;;;0.00;;
75160;SDS011;67232;50.096;8.716;2023-05-29T03:28:17;1.65;;;0.00;;
75160;SDS011;67232;50.096;8.716;2023-05-29T03:30:43;2.72;;;0.00;;
75160;SDS011;67232;50.096;8.716;2023-05-29T03:33:11;1.42;;;0.00;;
75160;SDS011;67232;50.096;8.716;2023-05-29T03:35:36;1.40;;;0.00;;
75160;SDS011;67232;50.096;8.716;2023-05-29T03:38:02;2.63;;;0.00;;
75160;SDS011;67232;50.096;8.716;2023-05-29T03:40:30;2.88;;;0.00;;
75160;SDS011;67232;50.096;8.716;2023-05-29T03:42:58;2.83;;;0.00;;
75160;SDS011;67232;50.096;8.716;2023-05-29T03:45:26;1.33;;;0.00;;
75160;SDS011;67232;50.096;8.716;2023-05-29T03:50:17;1.77;;;0.00;;
75160;SDS011;67232;50.096;8.716;2023-05-29T03:52:45;1.52;;;0.00;;
75160;SDS011;67232;50.096;8.716;2023-05-29T03:57:39;3.05;;;0.00;;
75160;SDS011;67232;50.096;8.716;2023-05-29T04:00:09;3.70;;;0.00;;
75160;SDS011;67232;50.096;8.716;2023-05-29T04:02:39;1.90;;;0.00;;
75160;SDS011;67232;50.096;8.716;2023-05-29T04:05:08;2.40;;;0.00;;
75160;SDS011;67232;50.096;8.716;2023-05-29T04:10:03;1.35;;;0.00;;
75160;SDS011;67232;50.096;8.716;2023-05-29T04:12:30;2.22;;;0.00;;
75160;SDS011;67232;50.096;8.716;2023-05-29T04:17:24;2.28;;;0.00;;
75160;SDS011;67232;50.096;8.716;2023-05-29T04:19:50;2.28;;;0.00;;
75160;SDS011;67232;50.096;8.716;2023-05-29T04:22:20;1.98;;;0.00;;
75160;SDS011;67232;50.096;8.716;2023-05-29T04:24:46;2.35;;;0.00;;
75160;SDS011;67232;50.096;8.716;2023-05-29T04:27:11;1.80;;;0.00;;
75160;SDS011;67232;50.096;8.716;2023-05-29T04:29:43;0.85;;;0.00;;
75160;SDS011;67232;50.096;8.716;2023-05-29T04:32:11;2.13;;;0.00;;
75160;SDS011;67232;50.096;8.716;2023-05-29T04:34:39;4.72;;;0.08;;
75160;SDS011;67232;50.096;8.716;2023-05-29T04:37:08;3.92;;;0.00;;
75160;SDS011;67232;50.096;8.716;2023-05-29T04:39:38;1.73;;;0.00;;
75160;SDS011;67232;50.096;8.716;2023-05-29T04:44:32;1.60;;;0.00;;
75160;SDS011;67232;50.096;8.716;2023-05-29T04:47:00;1.35;;;0.00;;
75160;SDS011;67232;50.096;8.716;2023-05-29T04:49:28;2.88;;;0.00;;
75160;SDS011;67232;50.096;8.716;2023-05-29T04:54:25;0.80;;;0.00;;
75160;SDS011;67232;50.096;8.716;2023-05-29T04:59:21;2.83;;;0.00;;
75160;SDS011;67232;50.096;8.716;2023-05-29T05:01:46;2.90;;;0.00;;
75160;SDS011;67232;50.096;8.716;2023-05-29T05:04:15;2.50;;;0.00;;
75160;SDS011;67232;50.096;8.716;2023-05-29T05:06:40;2.97;;;0.00;;
75160;SDS011;67232;50.096;8.716;2023-05-29T05:09:11;5.50;;;0.00;;
75160;SDS011;67232;50.096;8.716;2023-05-29T05:11:37;2.13;;;0.00;;
75160;SDS011;67232;50.096;8.716;2023-05-29T05:14:05;1.48;;;0.00;;
75160;SDS011;67232;50.096;8.716;2023-05-29T05:19:00;2.40;;;0.00;;
75160;SDS011;67232;50.096;8.716;2023-05-29T05:21:26;2.42;;;0.00;;
75160;SDS011;67232;50.096;8.716;2023-05-29T05:24:00;2.40;;;0.00;;
75160;SDS011;67232;50.096;8.716;2023-05-29T05:26:25;2.08;;;0.00;;
75160;SDS011;67232;50.096;8.716;2023-05-29T05:31:19;1.50;;;0.00;;
75160;SDS011;67232;50.096;8.716;2023-05-29T05:36:10;4.25;;;0.00;;
75160;SDS011;67232;50.096;8.716;2023-05-29T05:38:38;3.05;;;0.00;;
75160;SDS011;67232;50.096;8.716;2023-05-29T05:43:30;3.50;;;0.00;;
75160;SDS011;67232;50.096;8.716;2023-05-29T05:45:55;2.67;;;0.00;;
75160;SDS011;67232;50.096;8.716;2023-05-29T05:48:21;3.75;;;0.00;;
75160;SDS011;67232;50.096;8.716;2023-05-29T05:50:46;2.28;;;0.00;;
75160;SDS011;67232;50.096;8.716;2023-05-29T05:53:17;3.03;;;0.00;;
75160;SDS011;67232;50.096;8.716;2023-05-29T05:55:43;2.35;;;0.00;;
75160;SDS011;67232;50.096;8.716;2023-05-29T06:00:36;1.98;;;0.00;;
75160;SDS011;67232;50.096;8.716;2023-05-29T06:03:02;2.88;;;0.00;;
75160;SDS011;67232;50.096;8.716;2023-05-29T06:05:30;2.30;;;0.00;;
75160;SDS011;67232;50.096;8.716;2023-05-29T06:07:59;4.90;;;0.00;;
75160;SDS011;67232;50.096;8.716;2023-05-29T06:12:50;2.05;;;0.00;;
75160;SDS011;67232;50.096;8.716;2023-05-29T06:15:17;1.25;;;0.00;;
75160;SDS011;67232;50.096;8.716;2023-05-29T06:20:10;1.83;;;0.00;;
75160;SDS011;67232;50.096;8.716;2023-05-29T06:25:02;1.73;;;0.00;;
75160;SDS011;67232;50.096;8.716;2023-05-29T06:29:56;2.97;;;0.00;;
75160;SDS011;67232;50.096;8.716;2023-05-29T06:32:24;1.92;;;0.00;;
75160;SDS011;67232;50.096;8.716;2023-05-29T06:34:53;5.20;;;0.05;;
75160;SDS011;67232;50.096;8.716;2023-05-29T06:37:23;3.75;;;0.15;;
75160;SDS011;67232;50.096;8.716;2023-05-29T06:42:16;3.40;;;0.00;;
75160;SDS011;67232;50.096;8.716;2023-05-29T06:44:47;2.55;;;0.00;;
75160;SDS011;67232;50.096;8.716;2023-05-29T06:47:12;2.08;;;0.00;;
75160;SDS011;67232;50.096;8.716;2023-05-29T06:52:03;3.03;;;0.00;;
75160;SDS011;67232;50.096;8.716;2023-05-29T06:54:32;3.90;;;0.00;;
75160;SDS011;67232;50.096;8.716;2023-05-29T06:56:57;3.92;;;0.00;;
75160;SDS011;67232;50.096;8.716;2023-05-29T07:01:48;4.63;;;0.00;;
75160;SDS011;67232;50.096;8.716;2023-05-29T07:04:16;6.75;;;0.15;;
75160;SDS011;67232;50.096;8.716;2023-05-29T07:06:44;5.85;;;0.00;;
75160;SDS011;67232;50.096;8.716;2023-05-29T07:09:10;5.30;;;0.22;;
75160;SDS011;67232;50.096;8.716;2023-05-29T07:11:38;4.60;;;0.00;;
75160;SDS011;67232;50.096;8.716;2023-05-29T07:14:04;2.00;;;0.00;;
75160;SDS011;67232;50.096;8.716;2023-05-29T07:21:25;2.10;;;0.00;;
75160;SDS011;67232;50.096;8.716;2023-05-29T07:23:56;2.45;;;0.00;;
75160;SDS011;67232;50.096;8.716;2023-05-29T07:26:21;2.70;;;0.00;;
75160;SDS011;67232;50.096;8.716;2023-05-29T07:28:52;4.72;;;0.10;;
75160;SDS011;67232;50.096;8.716;2023-05-29T07:31:18;2.78;;;0.00;;
75160;SDS011;67232;50.096;8.716;2023-05-29T07:36:09;3.15;;;0.00;;
75160;SDS011;67232;50.096;8.716;2023-05-29T07:38:37;3.67;;;0.03;;
75160;SDS011;67232;50.096;8.716;2023-05-29T07:41:03;3.25;;;0.00;;
75160;SDS011;67232;50.096;8.716;2023-05-29T07:43:28;2.35;;;0.00;;
75160;SDS011;67232;50.096;8.716;2023-05-29T07:45:56;1.75;;;0.00;;
75160;SDS011;67232;50.096;8.716;2023-05-29T07:48:21;2.25;;;0.00;;
75160;SDS011;67232;50.096;8.716;2023-05-29T07:50:47;6.63;;;0.00;;
75160;SDS011;67232;50.096;8.716;2023-05-29T07:53:19;1.13;;;0.00;;
75160;SDS011;67232;50.096;8.716;2023-05-29T07:55:47;2.70;;;0.00;;
75160;SDS011;67232;50.096;8.716;2023-05-29T07:58:12;2.95;;;0.00;;
75160;SDS011;67232;50.096;8.716;2023-05-29T08:03:03;3.08;;;0.00;;
75160;SDS011;67232;50.096;8.716;2023-05-29T08:05:29;3.72;;;0.00;;
75160;SDS011;67232;50.096;8.716;2023-05-29T08:07:57;1.77;;;0.00;;
75160;SDS011;67232;50.096;8.716;2023-05-29T08:10:23;2.75;;;0.00;;
75160;SDS011;67232;50.096;8.716;2023-05-29T08:12:49;1.20;;;0.00;;
75160;SDS011;67232;50.096;8.716;2023-05-29T08:15:17;3.38;;;0.00;;
75160;SDS011;67232;50.096;8.716;2023-05-29T08:17:47;2.10;;;0.00;;
75160;SDS011;67232;50.096;8.716;2023-05-29T08:20:13;2.17;;;0.00;;
75160;SDS011;67232;50.096;8.716;2023-05-29T08:25:04;3.10;;;0.00;;
75160;SDS011;67232;50.096;8.716;2023-05-29T08:27:30;2.40;;;0.00;;
75160;SDS011;67232;50.096;8.716;2023-05-29T08:29:56;2.75;;;0.00;;
75160;SDS011;67232;50.096;8.716;2023-05-29T08:32:22;3.05;;;0.00;;
75160;SDS011;67232;50.096;8.716;2023-05-29T08:34:47;4.20;;;0.00;;
75160;SDS011;67232;50.096;8.716;2023-05-29T08:37:14;2.35;;;0.00;;
75160;SDS011;67232;50.096;8.716;2023-05-29T08:39:41;3.75;;;0.00;;
75160;SDS011;67232;50.096;8.716;2023-05-29T08:44:35;0.90;;;0.00;;
75160;SDS011;67232;50.096;8.716;2023-05-29T08:47:04;1.95;;;0.00;;
75160;SDS011;67232;50.096;8.716;2023-05-29T08:49:43;2.08;;;0.00;;
75160;SDS011;67232;50.096;8.716;2023-05-29T08:52:15;4.75;;;0.00;;
75160;SDS011;67232;50.096;8.716;2023-05-29T08:54:46;3.95;;;0.03;;
75160;SDS011;67232;50.096;8.716;2023-05-29T08:57:12;1.67;;;0.00;;
75160;SDS011;67232;50.096;8.716;2023-05-29T08:59:42;1.45;;;0.00;;
75160;SDS011;67232;50.096;8.716;2023-05-29T09:02:09;2.15;;;0.00;;
75160;SDS011;67232;50.096;8.716;2023-05-29T09:04:39;2.85;;;0.00;;
75160;SDS011;67232;50.096;8.716;2023-05-29T09:07:07;4.15;;;0.00;;
75160;SDS011;67232;50.096;8.716;2023-05-29T09:09:34;1.27;;;0.00;;
75160;SDS011;67232;50.096;8.716;2023-05-29T09:12:03;6.28;;;0.00;;
75160;SDS011;67232;50.096;8.716;2023-05-29T09:14:33;3.78;;;0.00;;
75160;SDS011;67232;50.096;8.716;2023-05-29T09:16:59;1.85;;;0.00;;
75160;SDS011;67232;50.096;8.716;2023-05-29T09:19:31;2.58;;;0.00;;
75160;SDS011;67232;50.096;8.716;2023-05-29T09:22:04;1.73;;;0.00;;
75160;SDS011;67232;50.096;8.716;2023-05-29T09:24:34;3.35;;;0.00;;
75160;SDS011;67232;50.096;8.716;2023-05-29T09:27:01;2.10;;;0.00;;
75160;SDS011;67232;50.096;8.716;2023-05-29T09:29:32;2.25;;;0.00;;
75160;SDS011;67232;50.096;8.716;2023-05-29T09:31:58;2.38;;;0.00;;
75160;SDS011;67232;50.096;8.716;2023-05-29T09:34:24;2.13;;;0.00;;
75160;SDS011;67232;50.096;8.716;2023-05-29T09:36:52;1.52;;;0.00;;
75160;SDS011;67232;50.096;8.716;2023-05-29T09:39:18;3.25;;;0.00;;
75160;SDS011;67232;50.096;8.716;2023-05-29T09:41:44;1.45;;;0.00;;
75160;SDS011;67232;50.096;8.716;2023-05-29T09:44:14;1.77;;;0.00;;
75160;SDS011;67232;50.096;8.716;2023-05-29T09:46:41;2.22;;;0.00;;
75160;SDS011;67232;50.096;8.716;2023-05-29T09:49:13;2.58;;;0.00;;
75160;SDS011;67232;50.096;8.716;2023-05-29T09:51:39;2.05;;;0.00;;
75160;SDS011;67232;50.096;8.716;2023-05-29T09:54:16;1.48;;;0.00;;
75160;SDS011;67232;50.096;8.716;2023-05-29T09:56:42;1.02;;;0.00;;
75160;SDS011;67232;50.096;8.716;2023-05-29T09:59:11;1.42;;;0.00;;
75160;SDS011;67232;50.096;8.716;2023-05-29T10:01:43;2.58;;;0.00;;
75160;SDS011;67232;50.096;8.716;2023-05-29T10:04:09;5.18;;;0.00;;
75160;SDS011;67232;50.096;8.716;2023-05-29T10:06:41;2.08;;;0.00;;
75160;SDS011;67232;50.096;8.716;2023-05-29T10:09:14;3.35;;;0.00;;
75160;SDS011;67232;50.096;8.716;2023-05-29T10:11:43;2.38;;;0.00;;
75160;SDS011;67232;50.096;8.716;2023-05-29T10:14:11;2.08;;;0.00;;
75160;SDS011;67232;50.096;8.716;2023-05-29T10:16:43;2.45;;;0.00;;
75160;SDS011;67232;50.096;8.716;2023-05-29T10:19:12;4.05;;;0.00;;
75160;SDS011;67232;50.096;8.716;2023-05-29T10:21:40;1.05;;;0.00;;
75160;SDS011;67232;50.096;8.716;2023-05-29T10:24:09;1.60;;;0.00;;
75160;SDS011;67232;50.096;8.716;2023-05-29T10:26:40;1.40;;;0.00;;
75160;SDS011;67232;50.096;8.716;2023-05-29T10:29:13;1.58;;;0.00;;
75160;SDS011;67232;50.096;8.716;2023-05-29T10:37:11;6.38;;;0.00;;
75160;SDS011;67232;50.096;8.716;2023-05-29T10:39:47;1.13;;;0.00;;
75160;SDS011;67232;50.096;8.716;2023-05-29T10:45:47;2.67;;;0.00;;
75160;SDS011;67232;50.096;8.716;2023-05-29T10:48:35;2.88;;;0.00;;
75160;SDS011;67232;50.096;8.716;2023-05-29T10:50:52;2.67;;;0.00;;
75160;SDS011;67232;50.096;8.716;2023-05-29T10:53:25;1.88;;;0.00;;
75160;SDS011;67232;50.096;8.716;2023-05-29T10:55:56;2.13;;;0.00;;
75160;SDS011;67232;50.096;8.716;2023-05-29T10:58:26;2.58;;;0.00;;
75160;SDS011;67232;50.096;8.716;2023-05-29T11:00:52;3.47;;;0.00;;
75160;SDS011;67232;50.096;8.716;2023-05-29T11:03:29;3.22;;;0.00;;
75160;SDS011;67232;50.096;8.716;2023-05-29T11:06:02;4.70;;;0.00;;
75160;SDS011;67232;50.096;8.716;2023-05-29T11:08:45;3.00;;;0.00;;
75160;SDS011;67232;50.096;8.716;2023-05-29T11:11:11;1.83;;;0.00;;
75160;SDS011;67232;50.096;8.716;2023-05-29T11:13:56;2.25;;;0.00;;
75160;SDS011;67232;50.096;8.716;2023-05-29T11:18:54;1.35;;;0.00;;
75160;SDS011;67232;50.096;8.716;2023-05-29T11:21:31;1.85;;;0.00;;
75160;SDS011;67232;50.096;8.716;2023-05-29T11:26:54;1.60;;;0.00;;
75160;SDS011;67232;50.096;8.716;2023-05-29T11:29:29;1.88;;;0.00;;
75160;SDS011;67232;50.096;8.716;2023-05-29T11:32:03;1.98;;;0.00;;
75160;SDS011;67232;50.096;8.716;2023-05-29T11:34:33;1.45;;;0.00;;
75160;SDS011;67232;50.096;8.716;2023-05-29T11:37:02;0.90;;;0.00;;
75160;SDS011;67232;50.096;8.716;2023-05-29T11:39:31;1.13;;;0.00;;
75160;SDS011;67232;50.096;8.716;2023-05-29T11:42:01;3.03;;;0.00;;
75160;SDS011;67232;50.096;8.716;2023-05-29T11:44:27;1.35;;;0.00;;
75160;SDS011;67232;50.096;8.716;2023-05-29T11:46:59;9.55;;;0.10;;
75160;SDS011;67232;50.096;8.716;2023-05-29T11:49:27;1.50;;;0.00;;
75160;SDS011;67232;50.096;8.716;2023-05-29T11:51:54;1.88;;;0.00;;
75160;SDS011;67232;50.096;8.716;2023-05-29T11:54:19;3.10;;;0.00;;
75160;SDS011;67232;50.096;8.716;2023-05-29T11:56:47;2.10;;;0.00;;
75160;SDS011;67232;50.096;8.716;2023-05-29T11:59:17;1.50;;;0.00;;
75160;SDS011;67232;50.096;8.716;2023-05-29T12:01:45;1.73;;;0.00;;
75160;SDS011;67232;50.096;8.716;2023-05-29T12:04:15;1.38;;;0.00;;
75160;SDS011;67232;50.096;8.716;2023-05-29T12:06:40;1.30;;;0.00;;
75160;SDS011;67232;50.096;8.716;2023-05-29T12:09:07;2.10;;;0.00;;
75160;SDS011;67232;50.096;8.716;2023-05-29T12:11:34;1.00;;;0.00;;
75160;SDS011;67232;50.096;8.716;2023-05-29T12:14:02;0.70;;;0.00;;
75160;SDS011;67232;50.096;8.716;2023-05-29T12:16:28;2.60;;;0.00;;
75160;SDS011;67232;50.096;8.716;2023-05-29T12:18:57;2.08;;;0.00;;
75160;SDS011;67232;50.096;8.716;2023-05-29T12:21:23;2.22;;;0.00;;
75160;SDS011;67232;50.096;8.716;2023-05-29T12:23:52;1.58;;;0.00;;
75160;SDS011;67232;50.096;8.716;2023-05-29T12:26:21;2.40;;;0.00;;
75160;SDS011;67232;50.096;8.716;2023-05-29T12:28:51;2.47;;;0.00;;
75160;SDS011;67232;50.096;8.716;2023-05-29T12:31:29;1.05;;;0.00;;
75160;SDS011;67232;50.096;8.716;2023-05-29T12:34:08;6.03;;;0.00;;
75160;SDS011;67232;50.096;8.716;2023-05-29T12:36:39;2.28;;;0.00;;
75160;SDS011;67232;50.096;8.716;2023-05-29T12:39:10;2.92;;;0.00;;
75160;SDS011;67232;50.096;8.716;2023-05-29T12:41:36;1.60;;;0.00;;
75160;SDS011;67232;50.096;8.716;2023-05-29T12:44:04;2.88;;;0.00;;
75160;SDS011;67232;50.096;8.716;2023-05-29T12:46:40;1.90;;;0.00;;
75160;SDS011;67232;50.096;8.716;2023-05-29T12:49:16;1.08;;;0.00;;
75160;SDS011;67232;50.096;8.716;2023-05-29T12:51:45;3.80;;;0.00;;
75160;SDS011;67232;50.096;8.716;2023-05-29T12:54:17;4.22;;;0.00;;
75160;SDS011;67232;50.096;8.716;2023-05-29T12:56:43;3.03;;;0.00;;
75160;SDS011;67232;50.096;8.716;2023-05-29T12:59:11;2.05;;;0.00;;
75160;SDS011;67232;50.096;8.716;2023-05-29T13:01:39;1.02;;;0.00;;
75160;SDS011;67232;50.096;8.716;2023-05-29T13:04:07;2.33;;;0.00;;
75160;SDS011;67232;50.096;8.716;2023-05-29T13:06:34;1.10;;;0.00;;
75160;SDS011;67232;50.096;8.716;2023-05-29T13:09:00;2.65;;;0.00;;
75160;SDS011;67232;50.096;8.716;2023-05-29T13:11:26;1.00;;;0.00;;
75160;SDS011;67232;50.096;8.716;2023-05-29T13:13:51;1.02;;;0.00;;
75160;SDS011;67232;50.096;8.716;2023-05-29T13:16:20;2.70;;;0.00;;
75160;SDS011;67232;50.096;8.716;2023-05-29T13:18:46;2.22;;;0.00;;
75160;SDS011;67232;50.096;8.716;2023-05-29T13:21:14;1.27;;;0.00;;
75160;SDS011;67232;50.096;8.716;2023-05-29T13:23:42;1.27;;;0.00;;
75160;SDS011;67232;50.096;8.716;2023-05-29T13:26:12;2.15;;;0.00;;
75160;SDS011;67232;50.096;8.716;2023-05-29T13:28:38;1.58;;;0.00;;
75160;SDS011;67232;50.096;8.716;2023-05-29T13:31:05;1.80;;;0.00;;
75160;SDS011;67232;50.096;8.716;2023-05-29T13:33:31;0.90;;;0.00;;
75160;SDS011;67232;50.096;8.716;2023-05-29T13:35:57;1.60;;;0.00;;
75160;SDS011;67232;50.096;8.716;2023-05-29T13:38:22;2.33;;;0.00;;
75160;SDS011;67232;50.096;8.716;2023-05-29T13:40:48;1.77;;;0.00;;
75160;SDS011;67232;50.096;8.716;2023-05-29T13:43:13;2.00;;;0.00;;
75160;SDS011;67232;50.096;8.716;2023-05-29T13:45:39;1.48;;;0.00;;
75160;SDS011;67232;50.096;8.716;2023-05-29T13:48:05;2.00;;;0.00;;
75160;SDS011;67232;50.096;8.716;2023-05-29T13:50:31;3.30;;;0.00;;
75160;SDS011;67232;50.096;8.716;2023-05-29T13:52:56;2.47;;;0.00;;
75160;SDS011;67232;50.096;8.716;2023-05-29T13:55:22;2.80;;;0.00;;
75160;SDS011;67232;50.096;8.716;2023-05-29T13:57:47;1.50;;;0.00;;
75160;SDS011;67232;50.096;8.716;2023-05-29T14:00:13;0.77;;;0.00;;
75160;SDS011;67232;50.096;8.716;2023-05-29T14:02:39;1.80;;;0.00;;
75160;SDS011;67232;50.096;8.716;2023-05-29T14:05:07;1.23;;;0.00;;
75160;SDS011;67232;50.096;8.716;2023-05-29T14:07:35;2.03;;;0.00;;
75160;SDS011;67232;50.096;8.716;2023-05-29T14:10:01;2.65;;;0.00;;
75160;SDS011;67232;50.096;8.716;2023-05-29T14:12:29;2.90;;;0.00;;
75160;SDS011;67232;50.096;8.716;2023-05-29T14:14:55;1.85;;;0.00;;
75160;SDS011;67232;50.096;8.716;2023-05-29T14:17:20;1.60;;;0.00;;
75160;SDS011;67232;50.096;8.716;2023-05-29T14:19:46;2.30;;;0.00;;
75160;SDS011;67232;50.096;8.716;2023-05-29T14:22:12;2.97;;;0.00;;
75160;SDS011;67232;50.096;8.716;2023-05-29T14:24:40;1.77;;;0.00;;
75160;SDS011;67232;50.096;8.716;2023-05-29T14:27:08;1.27;;;0.00;;
75160;SDS011;67232;50.096;8.716;2023-05-29T14:29:34;3.15;;;0.00;;
75160;SDS011;67232;50.096;8.716;2023-05-29T14:32:01;2.65;;;0.00;;
75160;SDS011;67232;50.096;8.716;2023-05-29T14:34:27;3.42;;;0.00;;
75160;SDS011;67232;50.096;8.716;2023-05-29T14:36:53;2.95;;;0.00;;
75160;SDS011;67232;50.096;8.716;2023-05-29T14:39:18;3.80;;;0.00;;
75160;SDS011;67232;50.096;8.716;2023-05-29T14:41:49;1.77;;;0.00;;
75160;SDS011;67232;50.096;8.716;2023-05-29T14:44:17;1.05;;;0.00;;
75160;SDS011;67232;50.096;8.716;2023-05-29T14:46:42;2.17;;;0.00;;
75160;SDS011;67232;50.096;8.716;2023-05-29T14:49:08;2.83;;;0.00;;
75160;SDS011;67232;50.096;8.716;2023-05-29T14:51:34;2.30;;;0.00;;
75160;SDS011;67232;50.096;8.716;2023-05-29T14:54:00;1.45;;;0.00;;
75160;SDS011;67232;50.096;8.716;2023-05-29T14:56:28;2.10;;;0.00;;
75160;SDS011;67232;50.096;8.716;2023-05-29T14:58:54;1.70;;;0.00;;
75160;SDS011;67232;50.096;8.716;2023-05-29T15:01:22;4.57;;;0.00;;
75160;SDS011;67232;50.096;8.716;2023-05-29T15:03:48;1.45;;;0.00;;
75160;SDS011;67232;50.096;8.716;2023-05-29T15:06:16;1.85;;;0.00;;
75160;SDS011;67232;50.096;8.716;2023-05-29T15:08:42;2.65;;;0.00;;
75160;SDS011;67232;50.096;8.716;2023-05-29T15:11:10;1.80;;;0.00;;
75160;SDS011;67232;50.096;8.716;2023-05-29T15:13:40;2.28;;;0.00;;
75160;SDS011;67232;50.096;8.716;2023-05-29T15:16:05;0.98;;;0.00;;
75160;SDS011;67232;50.096;8.716;2023-05-29T15:18:32;3.22;;;0.00;;
75160;SDS011;67232;50.096;8.716;2023-05-29T15:21:01;2.47;;;0.00;;
75160;SDS011;67232;50.096;8.716;2023-05-29T15:23:26;2.92;;;0.00;;
75160;SDS011;67232;50.096;8.716;2023-05-29T15:25:54;1.52;;;0.00;;
75160;SDS011;67232;50.096;8.716;2023-05-29T15:28:20;3.25;;;0.00;;
75160;SDS011;67232;50.096;8.716;2023-05-29T15:30:46;2.70;;;0.00;;
75160;SDS011;67232;50.096;8.716;2023-05-29T15:33:12;2.08;;;0.00;;
75160;SDS011;67232;50.096;8.716;2023-05-29T15:35:40;1.10;;;0.00;;
75160;SDS011;67232;50.096;8.716;2023-05-29T15:38:09;4.13;;;0.10;;
75160;SDS011;67232;50.096;8.716;2023-05-29T15:40:35;1.85;;;0.00;;
75160;SDS011;67232;50.096;8.716;2023-05-29T15:43:03;3.03;;;0.00;;
75160;SDS011;67232;50.096;8.716;2023-05-29T15:45:29;1.35;;;0.00;;
75160;SDS011;67232;50.096;8.716;2023-05-29T15:47:57;2.63;;;0.00;;
75160;SDS011;67232;50.096;8.716;2023-05-29T15:50:23;2.67;;;0.00;;
75160;SDS011;67232;50.096;8.716;2023-05-29T15:52:51;3.45;;;0.00;;
75160;SDS011;67232;50.096;8.716;2023-05-29T15:55:17;1.05;;;0.00;;
75160;SDS011;67232;50.096;8.716;2023-05-29T15:57:43;2.92;;;0.00;;
75160;SDS011;67232;50.096;8.716;2023-05-29T16:00:09;2.45;;;0.00;;
75160;SDS011;67232;50.096;8.716;2023-05-29T16:02:37;1.70;;;0.00;;
75160;SDS011;67232;50.096;8.716;2023-05-29T16:05:04;5.45;;;0.00;;
75160;SDS011;67232;50.096;8.716;2023-05-29T16:07:33;1.40;;;0.00;;
75160;SDS011;67232;50.096;8.716;2023-05-29T16:10:02;2.50;;;0.00;;
75160;SDS011;67232;50.096;8.716;2023-05-29T16:12:28;2.03;;;0.00;;
75160;SDS011;67232;50.096;8.716;2023-05-29T16:14:55;2.75;;;0.00;;
75160;SDS011;67232;50.096;8.716;2023-05-29T16:17:24;3.03;;;0.00;;
75160;SDS011;67232;50.096;8.716;2023-05-29T16:19:52;2.92;;;0.00;;
75160;SDS011;67232;50.096;8.716;2023-05-29T16:22:22;3.80;;;0.00;;
75160;SDS011;67232;50.096;8.716;2023-05-29T16:24:50;3.78;;;0.00;;
75160;SDS011;67232;50.096;8.716;2023-05-29T16:27:16;3.58;;;0.00;;
75160;SDS011;67232;50.096;8.716;2023-05-29T16:29:45;4.53;;;0.00;;
75160;SDS011;67232;50.096;8.716;2023-05-29T16:32:13;3.38;;;0.00;;
75160;SDS011;67232;50.096;8.716;2023-05-29T16:34:41;1.42;;;0.00;;
75160;SDS011;67232;50.096;8.716;2023-05-29T16:37:08;4.22;;;0.00;;
75160;SDS011;67232;50.096;8.716;2023-05-29T16:39:37;2.53;;;0.00;;
75160;SDS011;67232;50.096;8.716;2023-05-29T16:42:03;1.77;;;0.00;;
75160;SDS011;67232;50.096;8.716;2023-05-29T16:44:30;6.03;;;0.00;;
75160;SDS011;67232;50.096;8.716;2023-05-29T16:46:59;4.55;;;0.00;;
75160;SDS011;67232;50.096;8.716;2023-05-29T16:49:27;2.30;;;0.00;;
75160;SDS011;67232;50.096;8.716;2023-05-29T16:51:52;0.80;;;0.00;;
75160;SDS011;67232;50.096;8.716;2023-05-29T16:54:18;3.45;;;0.00;;
75160;SDS011;67232;50.096;8.716;2023-05-29T16:56:44;2.15;;;0.00;;
75160;SDS011;67232;50.096;8.716;2023-05-29T16:59:11;3.60;;;0.00;;
75160;SDS011;67232;50.096;8.716;2023-05-29T17:01:43;3.30;;;0.00;;
75160;SDS011;67232;50.096;8.716;2023-05-29T17:04:11;1.42;;;0.00;;
75160;SDS011;67232;50.096;8.716;2023-05-29T17:06:36;1.40;;;0.00;;
75160;SDS011;67232;50.096;8.716;2023-05-29T17:09:03;1.27;;;0.00;;